A18 weather

Middlebrook Station Scone Airstrip
Middlebrook Station, New South Wales, Australia

Public forecast

Using degrees Celsius for public forecast. Weather courtesy of forecast.io.

METAR (pilot weather report)

Closest report is Tamworth Airport, 53.3 nm (98.7 km) N. Retrieved 2019/04/24 02:30 UTC (1 minute ago):

YSTW 240230Z AUTO 17004KT 090V230 9999 // NCD 25/09 Q1022 RF00.0/000.0

TAF (pilot weather forecast)

Forecast is more than 12 hours old.

Closest forecast is Tamworth Airport, 53.3 nm (98.7 km) N. Retrieved 2019/04/23 00:36 UTC (1 day ago):

TAF YSTW 232304Z 2400/2418 15006KT CAVOK FM241100 10006KT CAVOK